createdAt,value
2019-02-18T00:00:12.475Z,21.84
2019-02-18T00:01:12.492Z,21.85
2019-02-18T00:02:12.506Z,21.92
2019-02-18T00:03:12.529Z,21.99
2019-02-18T00:04:12.536Z,21.89
2019-02-18T00:05:12.553Z,21.89
2019-02-18T00:06:12.566Z,21.93
2019-02-18T00:07:14.706Z,22.11
2019-02-18T00:08:12.598Z,22.14
2019-02-18T00:09:12.611Z,22.19
2019-02-18T00:10:12.626Z,22.15
2019-02-18T00:11:12.641Z,22.15
2019-02-18T00:12:12.656Z,22.17
2019-02-18T00:13:12.673Z,22.25
2019-02-18T00:14:12.689Z,22.25
2019-02-18T00:15:12.702Z,22.22
2019-02-18T00:16:12.717Z,22.33
2019-02-18T00:17:12.734Z,22.32
2019-02-18T00:18:12.748Z,22.33
2019-02-18T00:19:12.763Z,22.38
2019-02-18T00:20:12.777Z,22.32
2019-02-18T00:21:12.795Z,22.26
2019-02-18T00:22:12.810Z,22.32
2019-02-18T00:23:12.824Z,22.20
2019-02-18T00:24:12.841Z,22.17
2019-02-18T00:25:12.860Z,22.26
2019-02-18T00:26:12.870Z,22.20
2019-02-18T00:27:12.885Z,22.30
2019-02-18T00:28:12.900Z,22.17
2019-02-18T00:29:12.918Z,22.25
2019-02-18T00:30:12.932Z,22.22
2019-02-18T00:31:12.946Z,22.33
2019-02-18T00:32:12.966Z,22.20
2019-02-18T00:33:12.976Z,22.04
2019-02-18T00:34:12.994Z,21.95
2019-02-18T00:35:13.059Z,21.92
2019-02-18T00:36:13.022Z,21.93
2019-02-18T00:37:13.050Z,21.99
2019-02-18T00:38:13.060Z,22.01
2019-02-18T00:39:13.068Z,22.07
2019-02-18T00:40:13.103Z,22.03
2019-02-18T00:41:13.098Z,22.26
2019-02-18T00:42:13.114Z,22.10
2019-02-18T00:43:13.130Z,22.20
2019-02-18T00:44:13.143Z,22.25
2019-02-18T00:45:13.199Z,22.10
2019-02-18T00:46:13.179Z,22.25
2019-02-18T00:47:13.191Z,22.20
2019-02-18T00:48:13.203Z,22.15
2019-02-18T00:49:13.219Z,22.20
2019-02-18T00:50:13.237Z,22.20
2019-02-18T00:51:13.253Z,22.19
2019-02-18T00:52:13.269Z,22.05
2019-02-18T00:53:13.281Z,21.98
2019-02-18T00:54:13.299Z,21.93
2019-02-18T00:55:13.316Z,21.98
2019-02-18T00:56:13.327Z,22.11
2019-02-18T00:57:13.343Z,22.07
2019-02-18T00:58:13.356Z,22.23
2019-02-18T00:59:13.372Z,22.25
2019-02-18T01:00:13.389Z,22.32
2019-02-18T01:01:13.404Z,22.32
2019-02-18T01:02:13.419Z,22.40
2019-02-18T01:03:13.433Z,22.48
2019-02-18T01:04:13.450Z,22.63
2019-02-18T01:05:13.463Z,22.58
2019-02-18T01:06:13.480Z,22.59
2019-02-18T01:07:13.493Z,22.59
2019-02-18T01:08:13.508Z,22.65
2019-02-18T01:09:13.524Z,22.68
2019-02-18T01:10:13.542Z,22.72
2019-02-18T01:11:13.555Z,22.73
2019-02-18T01:12:13.570Z,22.73
2019-02-18T01:13:13.586Z,22.70
2019-02-18T01:14:13.602Z,22.80
2019-02-18T01:15:13.616Z,22.73
2019-02-18T01:16:13.632Z,22.73
2019-02-18T01:17:13.654Z,22.73
2019-02-18T01:18:13.672Z,22.78
2019-02-18T01:19:13.678Z,22.81
2019-02-18T01:20:13.700Z,22.80
2019-02-18T01:21:13.709Z,22.87
2019-02-18T01:22:13.726Z,22.84
2019-02-18T01:23:13.741Z,22.90
2019-02-18T01:24:13.756Z,22.88
2019-02-18T01:25:13.773Z,22.88
2019-02-18T01:26:13.787Z,22.91
2019-02-18T01:27:13.801Z,23.07
2019-02-18T01:28:13.820Z,22.99
2019-02-18T01:29:13.836Z,23.06
2019-02-18T01:30:13.851Z,23.06
2019-02-18T01:31:13.868Z,23.09
2019-02-18T01:32:13.883Z,23.13
2019-02-18T01:33:13.897Z,23.10
2019-02-18T01:34:13.913Z,23.06
2019-02-18T01:35:13.935Z,23.13
2019-02-18T01:36:13.945Z,23.20
2019-02-18T01:37:13.962Z,23.20
2019-02-18T01:38:13.975Z,23.22
2019-02-18T01:39:13.991Z,23.24
2019-02-18T01:40:14.017Z,23.28
2019-02-18T01:41:14.023Z,23.27
2019-02-18T01:42:14.039Z,23.33
2019-02-18T01:43:14.054Z,23.33
2019-02-18T01:44:14.074Z,23.43
2019-02-18T01:45:14.086Z,23.38
2019-02-18T01:46:14.101Z,23.37
2019-02-18T01:47:14.116Z,23.41
2019-02-18T01:48:14.134Z,23.47
2019-02-18T01:49:14.149Z,23.43
2019-02-18T01:50:14.166Z,23.51
2019-02-18T01:51:14.179Z,23.44
2019-02-18T01:52:14.215Z,23.48
2019-02-18T01:53:14.214Z,23.53
2019-02-18T01:54:14.228Z,23.56
2019-02-18T01:55:14.246Z,23.71
2019-02-18T01:56:14.261Z,23.59
2019-02-18T01:57:14.279Z,23.74
2019-02-18T01:58:14.293Z,23.78
2019-02-18T01:59:14.308Z,23.74
2019-02-18T02:00:14.327Z,23.77
2019-02-18T02:01:14.343Z,23.77
2019-02-18T02:02:14.356Z,23.83
2019-02-18T02:03:14.372Z,23.77
2019-02-18T02:04:14.390Z,23.78
2019-02-18T02:05:14.421Z,23.86
2019-02-18T02:06:14.422Z,23.81
2019-02-18T02:07:14.437Z,23.88
2019-02-18T02:08:14.454Z,23.86
2019-02-18T02:09:14.470Z,23.88
2019-02-18T02:10:14.486Z,23.90
2019-02-18T02:11:14.501Z,23.88
2019-02-18T02:12:14.524Z,24.02
2019-02-18T02:13:14.534Z,23.96
2019-02-18T02:14:14.555Z,24.03
2019-02-18T02:15:14.567Z,24.11
2019-02-18T02:16:14.586Z,24.10
2019-02-18T02:17:14.599Z,24.08
2019-02-18T02:18:14.618Z,24.17
2019-02-18T02:19:14.631Z,24.21
2019-02-18T02:20:14.652Z,24.25
2019-02-18T02:21:14.682Z,24.28
2019-02-18T02:22:14.680Z,24.21
2019-02-18T02:23:14.697Z,24.29
2019-02-18T02:24:14.720Z,24.23
2019-02-18T02:25:14.731Z,24.23
2019-02-18T02:26:14.749Z,24.26
2019-02-18T02:27:14.762Z,24.29
2019-02-18T02:28:14.784Z,24.28
2019-02-18T02:29:14.798Z,24.26
2019-02-18T02:30:14.812Z,24.21
2019-02-18T02:31:14.842Z,24.28
2019-02-18T02:32:14.844Z,24.26
2019-02-18T02:33:14.864Z,24.21
2019-02-18T02:34:14.879Z,24.14
2019-02-18T02:35:14.894Z,24.14
2019-02-18T02:36:14.909Z,24.10
2019-02-18T02:37:14.930Z,24.18
2019-02-18T02:38:14.945Z,23.99
2019-02-18T02:39:14.959Z,23.93
2019-02-18T02:40:14.981Z,23.88
2019-02-18T02:41:14.993Z,23.99
2019-02-18T02:42:15.008Z,23.84
2019-02-18T02:43:15.025Z,23.92
2019-02-18T02:44:15.045Z,23.83
2019-02-18T02:45:15.056Z,23.81
2019-02-18T02:46:15.085Z,23.89
2019-02-18T02:47:15.111Z,24.00
2019-02-18T02:48:15.110Z,23.95
2019-02-18T02:49:15.122Z,24.08
2019-02-18T02:50:15.141Z,24.02
2019-02-18T02:51:15.159Z,24.05
2019-02-18T02:52:15.177Z,24.25
2019-02-18T02:53:15.190Z,24.26
2019-02-18T02:54:15.205Z,24.23
2019-02-18T02:55:15.225Z,24.40
2019-02-18T02:56:15.235Z,24.45
2019-02-18T02:57:15.253Z,24.37
2019-02-18T02:58:15.291Z,24.54
2019-02-18T02:59:15.297Z,24.55
2019-02-18T03:00:15.311Z,24.57
2019-02-18T03:01:15.323Z,24.55
2019-02-18T03:02:15.336Z,24.67
2019-02-18T03:03:15.352Z,24.62
2019-02-18T03:04:15.377Z,24.69
2019-02-18T03:05:15.388Z,24.76
2019-02-18T03:06:15.405Z,24.81
2019-02-18T03:07:15.417Z,24.89
2019-02-18T03:08:20.367Z,25.03
2019-02-18T03:09:15.453Z,25.08
2019-02-18T03:10:15.476Z,25.19
2019-02-18T03:11:15.488Z,25.23
2019-02-18T03:12:15.505Z,25.35
2019-02-18T03:13:15.521Z,25.47
2019-02-18T03:14:15.537Z,25.47
2019-02-18T03:15:15.556Z,25.45
2019-02-18T03:16:15.571Z,25.56
2019-02-18T03:17:15.593Z,25.47
2019-02-18T03:18:15.606Z,25.59
2019-02-18T03:19:15.628Z,25.50
2019-02-18T03:20:15.640Z,25.65
2019-02-18T03:21:15.658Z,25.59
2019-02-18T03:22:15.675Z,25.58
2019-02-18T03:23:15.690Z,25.66
2019-02-18T03:24:15.707Z,25.77
2019-02-18T03:25:15.732Z,25.80
2019-02-18T03:26:15.742Z,25.74
2019-02-18T03:27:15.761Z,25.77
2019-02-18T03:28:15.779Z,25.73
2019-02-18T03:29:15.798Z,25.75
2019-02-18T03:30:15.822Z,25.69
2019-02-18T03:31:15.832Z,25.70
2019-02-18T03:32:15.849Z,25.77
2019-02-18T03:33:15.881Z,25.75
2019-02-18T03:34:15.886Z,25.69
2019-02-18T03:35:15.900Z,25.70
2019-02-18T03:36:15.919Z,25.77
2019-02-18T03:37:15.937Z,25.78
2019-02-18T03:38:15.956Z,25.82
2019-02-18T03:39:15.971Z,25.90
2019-02-18T03:40:15.990Z,25.96
2019-02-18T03:41:16.005Z,25.92
2019-02-18T03:42:16.025Z,25.88
2019-02-18T03:43:16.042Z,25.97
2019-02-18T03:44:16.060Z,25.92
2019-02-18T03:45:16.076Z,25.88
2019-02-18T03:46:16.096Z,26.04
2019-02-18T03:47:16.116Z,25.97
2019-02-18T03:48:16.128Z,26.07
2019-02-18T03:49:16.147Z,26.10
2019-02-18T03:50:16.162Z,26.12
2019-02-18T03:51:16.181Z,26.15
2019-02-18T03:52:16.204Z,26.12
2019-02-18T03:53:16.220Z,26.22
2019-02-18T03:54:16.234Z,26.30
2019-02-18T03:55:16.251Z,26.15
2019-02-18T03:56:16.273Z,26.16
2019-02-18T03:57:16.298Z,26.23
2019-02-18T03:58:16.304Z,26.33
2019-02-18T03:59:16.331Z,26.28
2019-02-18T04:00:16.345Z,26.38
2019-02-18T04:01:16.358Z,26.34
2019-02-18T04:02:16.383Z,26.38
2019-02-18T04:03:16.393Z,26.41
2019-02-18T04:04:16.415Z,26.40
2019-02-18T04:05:16.428Z,26.56
2019-02-18T04:06:16.446Z,26.60
2019-02-18T04:07:16.473Z,26.59
2019-02-18T04:08:16.487Z,26.59
2019-02-18T04:09:16.502Z,26.72
2019-02-18T04:10:16.520Z,26.71
2019-02-18T04:11:16.537Z,26.78
2019-02-18T04:12:16.555Z,26.80
2019-02-18T04:13:16.574Z,26.86
2019-02-18T04:14:16.595Z,26.89
2019-02-18T04:15:16.612Z,26.85
2019-02-18T04:16:16.625Z,26.96
2019-02-18T04:17:16.648Z,26.96
2019-02-18T04:18:16.669Z,27.05
2019-02-18T04:19:16.680Z,27.08
2019-02-18T04:20:16.700Z,27.07
2019-02-18T04:21:16.717Z,27.11
2019-02-18T04:22:16.736Z,27.18
2019-02-18T04:23:16.756Z,27.22
2019-02-18T04:24:16.772Z,27.30
2019-02-18T04:25:16.788Z,27.36
2019-02-18T04:26:16.809Z,27.33
2019-02-18T04:27:16.828Z,27.39
2019-02-18T04:28:16.851Z,27.32
2019-02-18T04:29:16.866Z,27.37
2019-02-18T04:30:16.884Z,27.37
2019-02-18T04:31:16.900Z,27.41
2019-02-18T04:32:16.920Z,27.58
2019-02-18T04:33:16.951Z,27.48
2019-02-18T04:34:16.955Z,27.55
2019-02-18T04:35:17.001Z,27.54
2019-02-18T04:36:16.991Z,27.52
2019-02-18T04:37:17.016Z,27.62
2019-02-18T04:38:17.033Z,27.67
2019-02-18T04:39:17.047Z,27.62
2019-02-18T04:40:17.069Z,27.72
2019-02-18T04:41:17.087Z,27.71
2019-02-18T04:42:17.108Z,27.77
2019-02-18T04:43:17.122Z,27.71
2019-02-18T04:44:17.145Z,27.75
2019-02-18T04:45:17.158Z,27.71
2019-02-18T04:46:17.178Z,27.70
2019-02-18T04:47:17.207Z,27.68
2019-02-18T04:48:17.216Z,27.64
2019-02-18T04:49:17.233Z,27.62
2019-02-18T04:50:17.254Z,27.64
2019-02-18T04:51:17.275Z,27.68
2019-02-18T04:52:17.302Z,27.60
2019-02-18T04:53:17.311Z,27.70
2019-02-18T04:54:17.328Z,27.64
2019-02-18T04:55:17.351Z,27.72
2019-02-18T04:56:17.366Z,27.67
2019-02-18T04:57:17.386Z,27.74
2019-02-18T04:58:17.403Z,27.72
2019-02-18T04:59:17.423Z,27.58
2019-02-18T05:00:17.440Z,27.60
2019-02-18T05:01:17.463Z,27.65
2019-02-18T05:02:17.482Z,27.49
2019-02-18T05:03:17.498Z,27.64
2019-02-18T05:04:17.518Z,27.67
2019-02-18T05:05:17.536Z,27.77
2019-02-18T05:06:17.554Z,27.75
2019-02-18T05:07:17.574Z,27.82
2019-02-18T05:08:17.596Z,27.86
2019-02-18T05:09:17.611Z,27.83
2019-02-18T05:10:17.630Z,27.87
2019-02-18T05:11:17.650Z,27.90
2019-02-18T05:12:17.667Z,28.01
2019-02-18T05:13:17.688Z,27.95
2019-02-18T05:14:17.705Z,27.97
2019-02-18T05:15:17.723Z,28.04
2019-02-18T05:16:17.743Z,27.89
2019-02-18T05:17:17.761Z,27.83
2019-02-18T05:18:17.781Z,27.82
2019-02-18T05:19:17.799Z,27.82
2019-02-18T05:20:17.820Z,27.89
2019-02-18T05:21:17.838Z,27.74
2019-02-18T05:22:17.857Z,27.75
2019-02-18T05:23:17.873Z,27.72
2019-02-18T05:24:17.893Z,27.68
2019-02-18T05:25:17.914Z,27.71
2019-02-18T05:26:17.933Z,27.75
2019-02-18T05:27:17.950Z,27.83
2019-02-18T05:28:17.972Z,27.83
2019-02-18T05:29:17.989Z,27.86
2019-02-18T05:30:18.017Z,28.04
2019-02-18T05:31:18.027Z,28.02
2019-02-18T05:32:18.066Z,27.98
2019-02-18T05:33:18.070Z,27.99
2019-02-18T05:34:18.089Z,28.08
2019-02-18T05:35:18.102Z,28.07
2019-02-18T05:36:18.122Z,28.09
2019-02-18T05:37:18.142Z,28.09
2019-02-18T05:38:18.165Z,28.08
2019-02-18T05:39:18.668Z,28.09
2019-02-18T05:40:18.218Z,28.19
2019-02-18T05:41:18.305Z,28.24
2019-02-18T05:42:18.237Z,28.24
2019-02-18T05:43:18.293Z,28.26
2019-02-18T05:44:18.274Z,28.27
2019-02-18T05:45:18.293Z,28.26
2019-02-18T05:46:18.313Z,28.17
2019-02-18T05:47:18.331Z,28.22
2019-02-18T05:48:18.355Z,28.24
2019-02-18T05:49:18.375Z,28.16
2019-02-18T05:50:18.388Z,28.27
2019-02-18T05:51:18.408Z,28.22
2019-02-18T05:52:18.430Z,28.12
2019-02-18T05:53:18.446Z,28.17
2019-02-18T05:54:18.464Z,28.19
2019-02-18T05:55:18.485Z,28.29
2019-02-18T05:56:18.542Z,28.26
2019-02-18T05:57:18.524Z,28.35
2019-02-18T05:58:18.559Z,28.30
2019-02-18T05:59:18.559Z,28.36
2019-02-18T06:00:18.585Z,28.26
2019-02-18T06:01:18.609Z,28.22
2019-02-18T06:02:18.620Z,28.27
2019-02-18T06:03:18.642Z,28.29
2019-02-18T06:04:18.657Z,28.35
2019-02-18T06:05:18.679Z,28.36
2019-02-18T06:06:18.695Z,28.42
2019-02-18T06:07:18.717Z,28.45
2019-02-18T06:08:18.735Z,28.57
2019-02-18T06:09:29.080Z,28.51
2019-02-18T06:10:18.801Z,28.58
2019-02-18T06:11:18.793Z,28.56
2019-02-18T06:12:18.816Z,28.53
2019-02-18T06:13:18.831Z,28.49
2019-02-18T06:14:18.849Z,28.56
2019-02-18T06:15:18.878Z,28.51
2019-02-18T06:16:18.889Z,28.58
2019-02-18T06:17:18.915Z,28.48
2019-02-18T06:18:18.927Z,28.54
2019-02-18T06:19:18.946Z,28.58
2019-02-18T06:20:18.965Z,28.71
2019-02-18T06:21:18.990Z,28.67
2019-02-18T06:22:19.007Z,28.63
2019-02-18T06:23:19.026Z,28.61
2019-02-18T06:24:19.048Z,28.67
2019-02-18T06:25:19.063Z,28.71
2019-02-18T06:26:19.093Z,28.57
2019-02-18T06:27:19.108Z,28.60
2019-02-18T06:28:19.122Z,28.61
2019-02-18T06:29:19.145Z,28.63
2019-02-18T06:30:19.164Z,28.58
2019-02-18T06:31:19.180Z,28.53
2019-02-18T06:32:19.198Z,28.61
2019-02-18T06:33:19.219Z,28.60
2019-02-18T06:34:19.239Z,28.58
2019-02-18T06:35:19.257Z,28.53
2019-02-18T06:36:19.278Z,28.64
2019-02-18T06:37:19.300Z,28.64
2019-02-18T06:38:19.320Z,28.61
2019-02-18T06:39:19.337Z,28.63
2019-02-18T06:40:19.353Z,28.61
2019-02-18T06:41:19.378Z,28.63
2019-02-18T06:42:19.394Z,28.64
2019-02-18T06:43:19.412Z,28.64
2019-02-18T06:44:19.432Z,28.54
2019-02-18T06:45:19.451Z,28.64
2019-02-18T06:46:19.473Z,28.60
2019-02-18T06:47:19.494Z,28.64
2019-02-18T06:48:19.518Z,28.58
2019-02-18T06:49:19.533Z,28.60
2019-02-18T06:50:19.552Z,28.69
2019-02-18T06:51:19.567Z,28.54
2019-02-18T06:52:19.586Z,28.67
2019-02-18T06:53:19.614Z,28.69
2019-02-18T06:54:19.630Z,28.71
2019-02-18T06:55:19.653Z,28.75
2019-02-18T06:56:19.664Z,28.79
2019-02-18T06:57:19.696Z,28.78
2019-02-18T06:58:19.705Z,28.75
2019-02-18T06:59:19.727Z,28.75
2019-02-18T07:00:19.744Z,28.75
2019-02-18T07:01:19.763Z,28.67
2019-02-18T07:02:19.785Z,28.56
2019-02-18T07:03:19.805Z,28.54
2019-02-18T07:04:19.824Z,28.51
2019-02-18T07:05:19.840Z,28.57
2019-02-18T07:06:19.863Z,28.46
2019-02-18T07:07:19.880Z,28.42
2019-02-18T07:08:19.901Z,28.56
2019-02-18T07:09:19.920Z,28.53
2019-02-18T07:10:19.951Z,28.56
2019-02-18T07:11:19.959Z,28.58
2019-02-18T07:12:19.978Z,28.57
2019-02-18T07:13:19.997Z,28.61
2019-02-18T07:14:20.017Z,28.56
2019-02-18T07:15:20.037Z,28.57
2019-02-18T07:16:20.057Z,28.56
2019-02-18T07:17:20.077Z,28.60
2019-02-18T07:18:20.109Z,28.58
2019-02-18T07:19:20.116Z,28.54
2019-02-18T07:20:20.137Z,28.63
2019-02-18T07:21:20.155Z,28.63
2019-02-18T07:22:20.174Z,28.71
2019-02-18T07:23:20.196Z,28.63
2019-02-18T07:24:20.215Z,28.54
2019-02-18T07:25:20.237Z,28.53
2019-02-18T07:26:20.257Z,28.60
2019-02-18T07:27:20.270Z,28.60
2019-02-18T07:28:20.313Z,28.58
2019-02-18T07:29:20.319Z,28.57
2019-02-18T07:30:20.328Z,28.67
2019-02-18T07:31:20.351Z,28.53
2019-02-18T07:32:20.370Z,28.60
2019-02-18T07:33:20.389Z,28.58
2019-02-18T07:34:20.409Z,28.73
2019-02-18T07:35:20.427Z,28.60
2019-02-18T07:36:20.446Z,28.54
2019-02-18T07:37:20.482Z,28.56
2019-02-18T07:38:20.493Z,28.54
2019-02-18T07:39:20.505Z,28.61
2019-02-18T07:40:20.540Z,28.63
2019-02-18T07:41:20.547Z,28.60
2019-02-18T07:42:20.565Z,28.58
2019-02-18T07:43:22.976Z,28.79
2019-02-18T07:44:20.606Z,28.73
2019-02-18T07:45:20.627Z,28.79
2019-02-18T07:46:20.644Z,28.76
2019-02-18T07:47:20.661Z,28.78
2019-02-18T07:48:20.689Z,28.93
2019-02-18T07:49:20.702Z,28.90
2019-02-18T07:50:21.172Z,28.95
2019-02-18T07:51:20.742Z,28.90
2019-02-18T07:52:20.759Z,28.93
2019-02-18T07:53:20.778Z,28.95
2019-02-18T07:54:20.806Z,28.97
2019-02-18T07:55:20.819Z,29.09
2019-02-18T07:56:20.840Z,29.02
2019-02-18T07:57:20.894Z,29.07
2019-02-18T07:58:20.903Z,29.11
2019-02-18T07:59:20.898Z,29.04
2019-02-18T08:00:20.919Z,28.86
2019-02-18T08:01:20.940Z,28.91
2019-02-18T08:02:20.957Z,28.85
2019-02-18T08:03:20.976Z,28.94
2019-02-18T08:04:20.997Z,28.86
2019-02-18T08:05:21.020Z,28.97
2019-02-18T08:06:21.037Z,29.01
2019-02-18T08:07:21.062Z,29.09
2019-02-18T08:08:21.076Z,29.16
2019-02-18T08:09:21.106Z,29.11
2019-02-18T08:10:21.132Z,29.14
2019-02-18T08:11:21.133Z,29.11
2019-02-18T08:12:21.170Z,29.16
2019-02-18T08:13:21.177Z,29.19
2019-02-18T08:14:21.194Z,29.25
2019-02-18T08:15:21.221Z,29.16
2019-02-18T08:16:21.236Z,29.19
2019-02-18T08:17:22.009Z,29.26
2019-02-18T08:18:21.274Z,29.36
2019-02-18T08:19:21.300Z,29.11
2019-02-18T08:20:22.023Z,29.19
2019-02-18T08:21:21.342Z,29.19
2019-02-18T08:22:21.355Z,29.13
2019-02-18T08:23:21.416Z,29.13
2019-02-18T08:24:21.396Z,29.17
2019-02-18T08:25:21.413Z,29.23
2019-02-18T08:26:22.016Z,29.20
2019-02-18T08:27:21.453Z,29.16
2019-02-18T08:28:21.477Z,29.21
2019-02-18T08:29:21.495Z,29.25
2019-02-18T08:30:21.511Z,29.26
2019-02-18T08:31:21.535Z,29.33
2019-02-18T08:32:21.554Z,29.29
2019-02-18T08:33:21.715Z,29.32
2019-02-18T08:34:21.593Z,29.26
2019-02-18T08:35:21.611Z,29.25
2019-02-18T08:36:21.633Z,29.32
2019-02-18T08:37:21.655Z,29.44
2019-02-18T08:38:21.672Z,29.35
2019-02-18T08:39:21.693Z,29.36
2019-02-18T08:40:22.739Z,29.41
2019-02-18T08:41:21.739Z,29.31
2019-02-18T08:42:21.753Z,29.32
2019-02-18T08:43:21.771Z,29.21
2019-02-18T08:44:21.792Z,29.36
2019-02-18T08:45:21.812Z,29.36
2019-02-18T08:46:21.834Z,29.35
2019-02-18T08:47:21.852Z,29.42
2019-02-18T08:48:24.051Z,29.44
2019-02-18T08:49:21.897Z,29.53
2019-02-18T08:50:21.913Z,29.53
2019-02-18T08:51:21.932Z,29.62
2019-02-18T08:52:21.962Z,29.50
2019-02-18T08:53:21.977Z,29.55
2019-02-18T08:54:21.998Z,29.53
2019-02-18T08:55:22.016Z,29.57
2019-02-18T08:56:22.036Z,29.51
2019-02-18T08:57:22.055Z,29.53
2019-02-18T08:58:22.092Z,29.57
2019-02-18T08:59:22.094Z,29.66
2019-02-18T09:00:22.116Z,29.55
2019-02-18T09:01:22.134Z,29.58
2019-02-18T09:02:22.157Z,29.57
2019-02-18T09:03:22.173Z,29.58
2019-02-18T09:04:22.199Z,29.60
2019-02-18T09:05:22.262Z,29.51
2019-02-18T09:06:22.237Z,29.54
2019-02-18T09:07:22.261Z,29.54
2019-02-18T09:08:22.279Z,29.55
2019-02-18T09:09:22.313Z,29.57
2019-02-18T09:10:32.725Z,29.54
2019-02-18T09:11:22.337Z,29.54
2019-02-18T09:12:22.356Z,29.58
2019-02-18T09:13:22.377Z,29.58
2019-02-18T09:14:22.397Z,29.51
2019-02-18T09:15:22.422Z,29.55
2019-02-18T09:16:22.441Z,29.54
2019-02-18T09:17:22.459Z,29.55
2019-02-18T09:18:22.482Z,29.53
2019-02-18T09:19:22.500Z,29.46
2019-02-18T09:20:22.521Z,29.41
2019-02-18T09:21:22.545Z,29.39
2019-02-18T09:22:22.560Z,29.38
2019-02-18T09:23:22.583Z,29.38
2019-02-18T09:24:22.599Z,29.42
2019-02-18T09:25:22.621Z,29.41
2019-02-18T09:26:22.658Z,29.47
2019-02-18T09:27:22.659Z,29.47
2019-02-18T09:28:22.684Z,29.47
2019-02-18T09:29:22.705Z,29.51
2019-02-18T09:30:22.720Z,29.29
2019-02-18T09:31:22.740Z,29.33
2019-02-18T09:32:22.763Z,29.35
2019-02-18T09:33:22.780Z,29.41
2019-02-18T09:34:22.801Z,29.42
2019-02-18T09:35:22.822Z,29.46
2019-02-18T09:36:22.841Z,29.51
2019-02-18T09:37:22.862Z,29.47
2019-02-18T09:38:25.432Z,29.48
2019-02-18T09:39:30.696Z,29.48
2019-02-18T09:40:22.921Z,29.57
2019-02-18T09:41:22.950Z,29.51
2019-02-18T09:42:22.964Z,29.51
2019-02-18T09:43:22.985Z,29.47
2019-02-18T09:44:23.000Z,29.44
2019-02-18T09:45:23.022Z,29.53
2019-02-18T09:46:23.046Z,29.51
2019-02-18T09:47:23.060Z,29.50
2019-02-18T09:48:23.094Z,29.36
2019-02-18T09:49:23.103Z,29.47
2019-02-18T09:50:23.132Z,29.47
2019-02-18T09:51:23.147Z,29.32
2019-02-18T09:52:23.166Z,29.23
2019-02-18T09:53:23.186Z,29.32
2019-02-18T09:54:23.202Z,29.32
2019-02-18T09:55:23.224Z,29.32
2019-02-18T09:56:23.246Z,29.39
2019-02-18T09:57:23.266Z,29.38
2019-02-18T09:58:23.351Z,29.35
2019-02-18T09:59:23.307Z,29.38
2019-02-18T10:00:23.321Z,29.42
2019-02-18T10:01:23.345Z,29.39
2019-02-18T10:02:23.363Z,29.48
2019-02-18T10:03:31.723Z,29.39
2019-02-18T10:04:23.409Z,29.39
2019-02-18T10:05:23.425Z,29.48
2019-02-18T10:06:23.443Z,29.41
2019-02-18T10:07:23.463Z,29.44
2019-02-18T10:08:23.488Z,29.44
2019-02-18T10:09:23.515Z,29.47
2019-02-18T10:10:23.529Z,29.53
2019-02-18T10:11:23.547Z,29.51
2019-02-18T10:12:23.565Z,29.42
2019-02-18T10:13:23.584Z,29.38
2019-02-18T10:14:23.610Z,29.39
2019-02-18T10:15:23.623Z,29.38
2019-02-18T10:16:23.649Z,29.35
2019-02-18T10:17:23.667Z,29.28
2019-02-18T10:18:23.688Z,29.38
2019-02-18T10:19:23.704Z,29.23
2019-02-18T10:20:23.726Z,29.19
2019-02-18T10:21:23.753Z,29.21
2019-02-18T10:22:23.769Z,29.19
2019-02-18T10:23:23.789Z,29.25
2019-02-18T10:24:23.809Z,29.20
2019-02-18T10:25:23.826Z,29.21
2019-02-18T10:26:23.847Z,29.13
2019-02-18T10:27:23.868Z,29.13
2019-02-18T10:28:23.891Z,28.97
2019-02-18T10:29:23.910Z,28.93
2019-02-18T10:30:23.927Z,28.83
2019-02-18T10:31:23.946Z,28.81
2019-02-18T10:32:23.966Z,28.78
2019-02-18T10:33:23.986Z,28.79
2019-02-18T10:34:24.007Z,28.73
2019-02-18T10:35:26.369Z,28.76
2019-02-18T10:36:24.045Z,28.66
2019-02-18T10:37:24.069Z,28.63
2019-02-18T10:38:24.086Z,28.64
2019-02-18T10:39:24.104Z,28.60
2019-02-18T10:40:24.125Z,28.51
2019-02-18T10:41:24.143Z,28.57
2019-02-18T10:42:24.163Z,28.45
2019-02-18T10:43:32.245Z,28.42
2019-02-18T10:44:24.204Z,28.41
2019-02-18T10:45:24.220Z,28.27
2019-02-18T10:46:24.242Z,28.17
2019-02-18T10:47:24.259Z,28.07
2019-02-18T10:48:24.283Z,28.07
2019-02-18T10:49:24.300Z,28.01
2019-02-18T10:50:24.319Z,27.97
2019-02-18T10:51:24.338Z,28.04
2019-02-18T10:52:24.361Z,28.01
2019-02-18T10:53:24.377Z,27.95
2019-02-18T10:54:24.395Z,27.95
2019-02-18T10:55:24.417Z,27.90
2019-02-18T10:56:24.432Z,27.85
2019-02-18T10:57:24.455Z,27.80
2019-02-18T10:58:24.473Z,27.70
2019-02-18T10:59:24.491Z,27.68
2019-02-18T11:00:24.511Z,27.52
2019-02-18T11:01:24.530Z,27.45
2019-02-18T11:02:24.548Z,27.52
2019-02-18T11:03:24.568Z,27.60
2019-02-18T11:04:24.589Z,27.36
2019-02-18T11:05:24.608Z,27.29
2019-02-18T11:06:24.626Z,27.27
2019-02-18T11:07:24.644Z,27.34
2019-02-18T11:08:24.664Z,27.33
2019-02-18T11:09:24.682Z,27.23
2019-02-18T11:10:24.702Z,27.17
2019-02-18T11:11:24.721Z,27.22
2019-02-18T11:12:24.736Z,27.23
2019-02-18T11:13:24.756Z,27.19
2019-02-18T11:14:24.775Z,27.23
2019-02-18T11:15:24.791Z,27.23
2019-02-18T11:16:24.821Z,27.22
2019-02-18T11:17:24.829Z,27.26
2019-02-18T11:18:24.873Z,27.22
2019-02-18T11:19:24.868Z,27.22
2019-02-18T11:20:24.889Z,27.17
2019-02-18T11:21:24.905Z,27.17
2019-02-18T11:22:24.924Z,27.15
2019-02-18T11:23:24.940Z,27.14
2019-02-18T11:24:24.960Z,27.08
2019-02-18T11:25:24.983Z,26.96
2019-02-18T11:26:24.999Z,26.99
2019-02-18T11:27:25.015Z,27.02
2019-02-18T11:28:25.097Z,26.97
2019-02-18T11:29:25.053Z,26.99
2019-02-18T11:30:25.072Z,26.92
2019-02-18T11:31:25.090Z,26.82
2019-02-18T11:32:25.141Z,26.75
2019-02-18T11:33:25.128Z,26.74
2019-02-18T11:34:25.145Z,26.72
2019-02-18T11:35:25.163Z,26.78
2019-02-18T11:36:25.183Z,26.71
2019-02-18T11:37:25.207Z,26.62
2019-02-18T11:38:25.218Z,26.70
2019-02-18T11:39:25.236Z,26.67
2019-02-18T11:40:25.259Z,26.56
2019-02-18T11:41:27.659Z,26.50
2019-02-18T11:42:25.293Z,26.60
2019-02-18T11:43:25.312Z,26.52
2019-02-18T11:44:25.328Z,26.55
2019-02-18T11:45:25.347Z,26.56
2019-02-18T11:46:25.367Z,26.59
2019-02-18T11:47:25.382Z,26.53
2019-02-18T11:48:25.405Z,26.50
2019-02-18T11:49:25.435Z,26.48
2019-02-18T11:50:25.443Z,26.48
2019-02-18T11:51:25.460Z,26.52
2019-02-18T11:52:25.475Z,26.33
2019-02-18T11:53:25.494Z,26.28
2019-02-18T11:54:25.511Z,26.30
2019-02-18T11:55:25.529Z,26.33
2019-02-18T11:56:25.554Z,26.35
2019-02-18T11:57:25.565Z,26.33
2019-02-18T11:58:25.583Z,26.28
2019-02-18T11:59:25.603Z,26.34
2019-02-18T12:00:25.618Z,26.25
2019-02-18T12:01:25.639Z,26.30
2019-02-18T12:02:25.654Z,26.22
2019-02-18T12:03:25.673Z,26.30
2019-02-18T12:04:25.691Z,26.26
2019-02-18T12:05:25.712Z,26.30
2019-02-18T12:06:25.725Z,26.26
2019-02-18T12:07:25.747Z,26.22
2019-02-18T12:08:25.763Z,26.28
2019-02-18T12:09:25.781Z,26.11
2019-02-18T12:10:25.798Z,26.04
2019-02-18T12:11:25.817Z,26.07
2019-02-18T12:12:25.835Z,26.20
2019-02-18T12:13:25.852Z,26.06
2019-02-18T12:14:27.467Z,26.11
2019-02-18T12:15:25.889Z,26.11
2019-02-18T12:16:25.905Z,26.07
2019-02-18T12:17:25.925Z,26.02
2019-02-18T12:18:25.944Z,26.11
2019-02-18T12:19:25.963Z,26.12
2019-02-18T12:20:25.979Z,26.18
2019-02-18T12:21:25.997Z,26.12
2019-02-18T12:22:26.014Z,26.04
2019-02-18T12:23:26.032Z,26.07
2019-02-18T12:24:26.052Z,26.03
2019-02-18T12:25:26.068Z,26.03
2019-02-18T12:26:26.088Z,26.04
2019-02-18T12:27:26.105Z,26.15
2019-02-18T12:28:26.120Z,26.02
2019-02-18T12:29:26.828Z,26.04
2019-02-18T12:30:26.157Z,25.95
2019-02-18T12:31:26.174Z,25.95
2019-02-18T12:32:26.191Z,25.93
2019-02-18T12:33:26.212Z,25.95
2019-02-18T12:34:26.301Z,26.00
2019-02-18T12:35:31.646Z,25.99
2019-02-18T12:36:26.261Z,25.97
2019-02-18T12:37:26.282Z,26.04
2019-02-18T12:38:26.300Z,26.02
2019-02-18T12:39:26.317Z,26.07
2019-02-18T12:40:26.339Z,25.99
2019-02-18T12:41:26.417Z,26.06
2019-02-18T12:42:26.371Z,26.04
2019-02-18T12:43:26.391Z,26.00
2019-02-18T12:44:27.523Z,25.92
2019-02-18T12:45:26.428Z,25.88
2019-02-18T12:46:26.448Z,25.95
2019-02-18T12:47:26.457Z,25.90
2019-02-18T12:48:26.478Z,25.87
2019-02-18T12:49:26.509Z,25.90
2019-02-18T12:50:26.511Z,25.92
2019-02-18T12:51:26.530Z,25.75
2019-02-18T12:52:26.551Z,25.75